createdAt,value
2022-09-13T00:02:54.474Z,3.90
2022-09-13T00:07:59.839Z,4.17
2022-09-13T00:13:08.470Z,4.03
2022-09-13T00:18:13.380Z,4.30
2022-09-13T00:23:18.231Z,4.17
2022-09-13T00:28:25.850Z,4.00
2022-09-13T00:33:30.809Z,4.57
2022-09-13T00:38:38.125Z,4.47
2022-09-13T00:43:56.473Z,4.20
2022-09-13T00:49:05.767Z,4.43
2022-09-13T00:54:11.005Z,4.37
2022-09-13T00:59:25.382Z,4.13
2022-09-13T01:04:34.331Z,4.10
2022-09-13T01:09:41.913Z,4.30
2022-09-13T01:14:50.424Z,4.13
2022-09-13T01:19:55.451Z,4.20
2022-09-13T01:25:35.827Z,4.40
2022-09-13T01:30:52.421Z,3.70
2022-09-13T01:36:21.642Z,4.83
2022-09-13T01:41:59.130Z,4.33
2022-09-13T01:47:21.149Z,4.43
2022-09-13T01:52:32.872Z,4.07
2022-09-13T01:57:44.150Z,4.00
2022-09-13T02:02:55.991Z,4.33
2022-09-13T02:08:06.700Z,4.50
2022-09-13T02:13:17.249Z,3.60
2022-09-13T02:18:29.728Z,4.50
2022-09-13T02:23:39.487Z,3.90
2022-09-13T02:28:52.365Z,4.30
2022-09-13T02:34:03.703Z,3.70
2022-09-13T02:39:13.173Z,4.67
2022-09-13T02:44:25.621Z,4.77
2022-09-13T02:49:43.147Z,4.73
2022-09-13T02:54:57.119Z,4.23
2022-09-13T03:00:03.434Z,4.80
2022-09-13T03:05:11.778Z,5.43
2022-09-13T03:10:18.547Z,4.90
2022-09-13T03:15:34.561Z,5.07
2022-09-13T03:20:49.462Z,5.60
2022-09-13T03:26:24.457Z,5.73
2022-09-13T03:31:36.166Z,5.67
2022-09-13T03:36:48.910Z,6.13
2022-09-13T03:42:00.184Z,5.73
2022-09-13T03:47:08.609Z,5.77
2022-09-13T03:52:16.747Z,6.63
2022-09-13T03:57:24.726Z,6.40
2022-09-13T04:02:30.207Z,6.00
2022-09-13T04:07:38.036Z,6.30
2022-09-13T04:12:45.989Z,6.67
2022-09-13T04:17:51.060Z,6.27
2022-09-13T04:22:59.484Z,6.13
2022-09-13T04:28:05.001Z,6.00
2022-09-13T04:33:10.036Z,6.63
2022-09-13T04:38:18.007Z,7.37
2022-09-13T04:43:23.246Z,6.63
2022-09-13T04:48:28.246Z,6.40
2022-09-13T04:53:37.138Z,6.03
2022-09-13T04:58:42.149Z,7.40
2022-09-13T05:03:48.173Z,6.47
2022-09-13T05:08:58.019Z,6.60
2022-09-13T05:14:04.329Z,5.47
2022-09-13T05:19:09.921Z,6.73
2022-09-13T05:24:18.650Z,6.27
2022-09-13T05:29:23.982Z,6.27
2022-09-13T05:34:29.720Z,5.03
2022-09-13T05:40:00.223Z,5.30
2022-09-13T05:45:02.692Z,4.77
2022-09-13T05:50:10.725Z,5.70
2022-09-13T05:55:19.640Z,5.23
2022-09-13T06:00:25.003Z,5.67
2022-09-13T06:05:33.227Z,5.67
2022-09-13T06:10:42.831Z,5.83
2022-09-13T06:15:48.574Z,4.70
2022-09-13T06:20:54.543Z,4.60
2022-09-13T06:26:07.440Z,4.17
2022-09-13T06:31:18.405Z,5.17
2022-09-13T06:36:24.860Z,3.97
2022-09-13T06:41:33.218Z,4.17
2022-09-13T06:46:39.565Z,4.40
2022-09-13T06:51:44.851Z,3.80
2022-09-13T06:56:53.799Z,3.97
2022-09-13T07:02:00.866Z,3.60
2022-09-13T07:07:06.626Z,3.47
2022-09-13T07:12:20.571Z,3.70
2022-09-13T07:17:29.649Z,3.70
2022-09-13T07:22:36.903Z,3.47
2022-09-13T07:27:45.011Z,3.53
2022-09-13T07:32:49.990Z,3.63
2022-09-13T07:37:55.243Z,3.80
2022-09-13T07:43:03.517Z,7.27
2022-09-13T07:48:09.038Z,4.10
2022-09-13T07:53:17.722Z,4.33
2022-09-13T07:58:25.596Z,3.63
2022-09-13T08:03:31.192Z,5.03
2022-09-13T08:08:37.221Z,4.27
2022-09-13T08:13:45.052Z,3.97
2022-09-13T08:18:52.247Z,4.23
2022-09-13T08:24:01.157Z,5.33
2022-09-13T08:29:09.985Z,4.93
2022-09-13T08:34:16.252Z,4.50
2022-09-13T08:39:21.319Z,5.83
2022-09-13T08:44:32.806Z,4.07
2022-09-13T08:49:43.783Z,5.77
2022-09-13T08:54:49.568Z,3.83
2022-09-13T09:00:05.436Z,5.63
2022-09-13T09:05:20.398Z,9.53
2022-09-13T09:10:30.948Z,5.33
2022-09-13T09:15:44.787Z,6.83
2022-09-13T09:20:53.266Z,5.20
2022-09-13T09:26:04.542Z,5.87
2022-09-13T09:31:18.379Z,4.03
2022-09-13T09:36:32.778Z,8.17
2022-09-13T09:41:38.980Z,4.10
2022-09-13T09:46:50.301Z,3.83
2022-09-13T09:51:57.485Z,4.33
2022-09-13T09:57:02.633Z,4.37
2022-09-13T10:02:20.974Z,4.17
2022-09-13T10:07:34.573Z,4.40
2022-09-13T10:12:43.049Z,5.30
2022-09-13T10:18:16.940Z,3.80
2022-09-13T10:23:32.658Z,3.80
2022-09-13T10:28:40.690Z,5.53
2022-09-13T10:33:59.889Z,3.30
2022-09-13T10:39:08.284Z,3.47
2022-09-13T10:44:33.098Z,2.93
2022-09-13T10:49:50.997Z,4.60
2022-09-13T10:54:56.842Z,3.13
2022-09-13T11:00:02.008Z,3.73
2022-09-13T11:05:23.922Z,2.77
2022-09-13T11:10:35.736Z,3.30
2022-09-13T11:15:52.812Z,3.43
2022-09-13T11:21:12.818Z,4.30
2022-09-13T11:26:38.142Z,3.67
2022-09-13T11:31:53.209Z,3.87
2022-09-13T11:37:14.535Z,3.70
2022-09-13T11:42:35.900Z,3.03
2022-09-13T11:47:55.404Z,4.30
2022-09-13T11:53:31.665Z,3.83
2022-09-13T11:58:41.673Z,3.17
2022-09-13T12:03:52.907Z,5.23
2022-09-13T12:09:05.684Z,2.50
2022-09-13T12:14:18.807Z,2.60
2022-09-13T12:19:27.509Z,2.40
2022-09-13T12:24:41.101Z,2.60
2022-09-13T12:29:53.228Z,1.80
2022-09-13T12:35:04.796Z,2.10
2022-09-13T12:40:35.605Z,2.07
2022-09-13T12:46:04.938Z,2.20
2022-09-13T12:51:18.807Z,2.10
2022-09-13T12:56:44.086Z,1.60
2022-09-13T13:01:52.589Z,1.90
2022-09-13T13:07:02.122Z,1.80
2022-09-13T13:12:10.212Z,1.83
2022-09-13T13:17:40.882Z,1.67
2022-09-13T13:22:54.132Z,1.52
2022-09-13T13:28:02.332Z,1.80
2022-09-13T13:33:18.341Z,1.80
2022-09-13T13:38:46.907Z,1.80
2022-09-13T13:43:54.393Z,1.77
2022-09-13T13:48:59.823Z,1.50
2022-09-13T13:54:27.663Z,1.92
2022-09-13T13:59:37.481Z,1.60
2022-09-13T14:05:12.124Z,1.60
2022-09-13T14:10:25.663Z,1.80
2022-09-13T14:15:48.625Z,1.60
2022-09-13T14:21:08.243Z,1.60
2022-09-13T14:26:17.116Z,2.10
2022-09-13T14:31:24.684Z,1.73
2022-09-13T14:36:29.559Z,2.00
2022-09-13T14:41:36.707Z,1.50
2022-09-13T14:46:47.306Z,1.43
2022-09-13T14:51:57.341Z,1.20
2022-09-13T14:57:05.106Z,1.93
2022-09-13T15:02:20.991Z,1.80
2022-09-13T15:07:32.395Z,1.53
2022-09-13T15:12:38.572Z,1.73
2022-09-13T15:18:01.901Z,1.80
2022-09-13T15:23:06.615Z,1.90
2022-09-13T15:28:24.356Z,1.87
2022-09-13T15:33:34.231Z,1.80
2022-09-13T15:38:39.059Z,1.60
2022-09-13T15:43:44.342Z,1.83
2022-09-13T15:48:55.586Z,1.73
2022-09-13T15:54:01.351Z,1.80
2022-09-13T15:59:06.149Z,1.70
2022-09-13T16:04:14.150Z,1.57
2022-09-13T16:09:22.240Z,2.27
2022-09-13T16:14:27.020Z,1.50
2022-09-13T16:19:34.360Z,2.07
2022-09-13T16:24:39.754Z,1.90
2022-09-13T16:29:45.090Z,2.10
2022-09-13T16:34:52.628Z,1.90
2022-09-13T16:39:59.325Z,2.13
2022-09-13T16:45:06.499Z,2.43
2022-09-13T16:50:14.026Z,2.30
2022-09-13T16:55:18.983Z,2.67
2022-09-13T17:00:24.639Z,2.97
2022-09-13T17:05:32.194Z,2.03
2022-09-13T17:10:37.095Z,2.40
2022-09-13T17:15:42.187Z,2.10
2022-09-13T17:20:51.477Z,1.97
2022-09-13T17:25:56.330Z,1.80
2022-09-13T17:31:02.703Z,1.77
2022-09-13T17:36:14.207Z,2.17
2022-09-13T17:41:20.749Z,3.77
2022-09-13T17:46:28.344Z,2.60
2022-09-13T17:51:36.458Z,2.83
2022-09-13T17:56:43.640Z,2.30
2022-09-13T18:01:50.273Z,2.63
2022-09-13T18:06:58.332Z,2.40
2022-09-13T18:12:03.174Z,2.30
2022-09-13T18:17:13.144Z,2.20
2022-09-13T18:22:20.617Z,2.30
2022-09-13T18:27:25.368Z,2.47
2022-09-13T18:32:30.225Z,3.57
2022-09-13T18:37:37.643Z,3.20
2022-09-13T18:42:45.041Z,3.10
2022-09-13T18:47:50.393Z,3.87
2022-09-13T18:52:57.957Z,3.00
2022-09-13T18:58:03.959Z,3.20
2022-09-13T19:03:12.676Z,3.30
2022-09-13T19:08:21.278Z,3.03
2022-09-13T19:13:26.596Z,2.80
2022-09-13T19:18:32.656Z,2.60
2022-09-13T19:24:06.571Z,2.60
2022-09-13T19:29:10.279Z,2.40
2022-09-13T19:34:15.545Z,2.77
2022-09-13T19:39:28.397Z,2.60
2022-09-13T19:44:34.555Z,2.90
2022-09-13T19:49:40.402Z,2.23
2022-09-13T19:54:47.934Z,2.13
2022-09-13T19:59:52.887Z,3.00
2022-09-13T20:04:57.789Z,2.57
2022-09-13T20:10:05.523Z,2.97
2022-09-13T20:15:12.106Z,2.80
2022-09-13T20:20:17.188Z,3.17
2022-09-13T20:25:25.112Z,2.73
2022-09-13T20:30:30.096Z,3.43
2022-09-13T20:35:35.260Z,3.10
2022-09-13T20:40:43.036Z,3.30
2022-09-13T20:45:47.888Z,3.43
2022-09-13T20:51:01.691Z,4.07
2022-09-13T20:56:11.231Z,3.63
2022-09-13T21:01:20.714Z,3.70
2022-09-13T21:06:27.889Z,4.47
2022-09-13T21:11:37.880Z,4.03
2022-09-13T21:16:43.783Z,4.27
2022-09-13T21:21:48.725Z,4.80
2022-09-13T21:26:57.559Z,4.43
2022-09-13T21:32:02.334Z,5.20
2022-09-13T21:37:07.131Z,4.87
2022-09-13T21:42:15.986Z,4.37
2022-09-13T21:47:20.788Z,5.40
2022-09-13T21:52:26.097Z,5.10
2022-09-13T21:57:33.533Z,5.13
2022-09-13T22:02:38.411Z,4.87
2022-09-13T22:07:43.271Z,5.03
2022-09-13T22:12:51.047Z,5.20
2022-09-13T22:17:55.927Z,5.00
2022-09-13T22:23:00.678Z,5.90
2022-09-13T22:28:08.150Z,6.30
2022-09-13T22:33:12.906Z,5.03
2022-09-13T22:38:17.710Z,5.50
2022-09-13T22:43:25.210Z,5.60
2022-09-13T22:48:29.970Z,5.40
2022-09-13T22:53:36.154Z,4.57
2022-09-13T22:58:44.175Z,5.23
2022-09-13T23:03:50.429Z,5.13
2022-09-13T23:08:58.072Z,5.93
2022-09-13T23:14:10.317Z,5.40
2022-09-13T23:19:16.397Z,5.33
2022-09-13T23:24:21.824Z,5.23
2022-09-13T23:29:29.326Z,5.10
2022-09-13T23:34:34.550Z,5.33
2022-09-13T23:39:39.407Z,5.13
2022-09-13T23:44:46.953Z,5.00
2022-09-13T23:49:52.107Z,4.97
2022-09-13T23:54:57.278Z,5.00
